Time;durP1;ratioP1;P1;durP2;ratioP2;P2;SDS_P1;SDS_P2;PMS_P1;PMS_P2;Temp;Humidity;BMP_temperature;BMP_pressure;BME280_temperature;BME280_humidity;BME280_pressure;Samples;Min_cycle;Max_cycle;Signal;HPM_P1;HPM_P2
2021/05/13 00:01:22;;;;;;;42.38;26.48;;;;;;;7.61;92.85;100869.66;5105159;28;20029;-72
2021/05/13 00:03:48;;;;;;;39.15;26.10;;;;;;;7.51;92.87;100873.00;5103370;28;20420;-71
2021/05/13 00:06:14;;;;;;;40.50;27.33;;;;;;;7.48;93.95;100870.31;5103846;28;20382;-71
2021/05/13 00:08:39;;;;;;;43.13;27.17;;;;;;;7.43;93.40;100866.72;5104266;28;20024;-72
2021/05/13 00:11:06;;;;;;;39.85;26.38;;;;;;;7.43;92.93;100874.63;5102410;28;20016;-70
2021/05/13 00:13:33;;;;;;;41.00;26.63;;;;;;;7.41;93.57;100868.44;5105471;28;20028;-70
2021/05/13 00:15:59;;;;;;;40.28;25.88;;;;;;;7.48;93.03;100870.31;5101632;28;20494;-72
2021/05/13 00:18:25;;;;;;;39.70;25.95;;;;;;;7.50;92.23;100865.97;5105009;28;20024;-70
2021/05/13 00:20:51;;;;;;;41.72;27.38;;;;;;;7.43;92.19;100859.72;5102472;28;20035;-71
2021/05/13 00:23:16;;;;;;;42.17;26.63;;;;;;;7.40;91.98;100864.94;5103634;28;20465;-70
2021/05/13 00:25:42;;;;;;;43.55;27.73;;;;;;;7.31;92.53;100865.66;5103573;28;20067;-72
2021/05/13 00:28:08;;;;;;;42.63;28.73;;;;;;;7.24;93.62;100871.66;5102475;28;20020;-71
2021/05/13 00:30:34;;;;;;;41.25;28.63;;;;;;;7.20;94.57;100864.56;5104668;28;20084;-68
2021/05/13 00:33:00;;;;;;;42.60;29.05;;;;;;;7.23;95.24;100861.97;5101498;28;20024;-67
2021/05/13 00:35:25;;;;;;;42.03;27.40;;;;;;;7.27;97.02;100865.56;5104930;28;20026;-72
2021/05/13 00:37:50;;;;;;;40.75;26.88;;;;;;;7.25;97.40;100864.63;5102034;28;20779;-72
2021/05/13 00:40:18;;;;;;;40.03;27.08;;;;;;;7.21;97.42;100868.06;5103720;28;20016;-70
2021/05/13 00:42:44;;;;;;;43.95;28.92;;;;;;;7.21;98.21;100861.06;5105155;28;20401;-70
2021/05/13 00:45:12;;;;;;;41.92;27.45;;;;;;;7.10;97.13;100866.13;5103701;28;20069;-70
2021/05/13 00:47:45;;;;;;;39.00;25.73;;;;;;;6.98;95.64;100860.66;5102131;28;20043;-70
2021/05/13 00:50:11;;;;;;;43.13;29.15;;;;;;;6.98;97.44;100866.78;5103772;28;20377;-72
2021/05/13 00:52:36;;;;;;;45.83;31.83;;;;;;;6.99;100.00;100862.44;5101707;28;20027;-71
2021/05/13 00:55:02;;;;;;;44.42;30.83;;;;;;;6.94;99.98;100859.69;5104672;28;20031;-69
2021/05/13 00:57:27;;;;;;;44.72;29.55;;;;;;;6.94;98.74;100857.06;5101265;28;20020;-71
2021/05/13 00:59:58;;;;;;;46.90;31.23;;;;;;;6.97;99.62;100858.88;5104309;28;20023;-71
2021/05/13 01:02:23;;;;;;;43.70;29.15;;;;;;;6.98;98.48;100861.53;5101541;28;20077;-72
2021/05/13 01:04:49;;;;;;;45.17;30.35;;;;;;;6.97;98.21;100859.78;5103675;28;20374;-71
2021/05/13 01:07:14;;;;;;;44.22;28.92;;;;;;;7.00;97.77;100865.94;5102643;28;20027;-70
2021/05/13 01:09:39;;;;;;;44.30;30.08;;;;;;;7.04;98.57;100871.25;5104634;28;20020;-68
2021/05/13 01:12:10;;;;;;;39.85;27.85;;;;;;;7.09;95.79;100864.38;5108581;28;20028;-71
2021/05/13 01:19:47;;;;;;;47.22;31.88;;;;;;;6.75;97.83;100854.94;5097298;28;20047;-69
2021/05/13 01:22:14;;;;;;;47.47;32.95;;;;;;;6.66;98.32;100858.25;5096602;28;20027;-71
2021/05/13 01:24:40;;;;;;;48.08;33.67;;;;;;;6.63;100.00;100858.19;5106364;28;20032;-70
2021/05/13 01:27:05;;;;;;;49.25;33.80;;;;;;;6.61;99.68;100855.53;5108092;28;20015;-72
2021/05/13 01:29:31;;;;;;;47.45;33.50;;;;;;;6.62;99.98;100857.28;5105396;28;20352;-73
2021/05/13 01:31:56;;;;;;;47.13;33.15;;;;;;;6.65;99.82;100855.59;5108416;28;20533;-70
2021/05/13 01:34:22;;;;;;;50.25;35.33;;;;;;;6.59;100.00;100856.34;5105935;28;20032;-69
2021/05/13 01:36:49;;;;;;;52.72;36.22;;;;;;;6.62;100.00;100849.41;5106973;28;20031;-69
2021/05/13 01:39:14;;;;;;;50.42;34.85;;;;;;;6.69;100.00;100850.44;5106484;28;20072;-73
2021/05/13 01:41:41;;;;;;;55.03;36.00;;;;;;;6.65;100.00;100845.97;5105944;28;20040;-73
2021/05/13 01:44:07;;;;;;;57.20;35.95;;;;;;;6.73;100.00;100851.41;5107646;28;20019;-65
2021/05/13 01:46:32;;;;;;;57.60;38.50;;;;;;;6.75;100.00;100853.19;5104532;28;20034;-68
2021/05/13 01:48:58;;;;;;;60.67;40.33;;;;;;;6.80;100.00;100853.25;5106537;28;20053;-69
2021/05/13 01:51:23;;;;;;;54.75;37.17;;;;;;;6.78;100.00;100844.47;5104775;28;20111;-70
2021/05/13 01:53:49;;;;;;;53.58;35.83;;;;;;;6.77;100.00;100842.69;5107001;28;20027;-73
2021/05/13 01:56:15;;;;;;;54.58;36.08;;;;;;;6.75;100.00;100842.66;5106659;28;20382;-73
2021/05/13 01:58:41;;;;;;;49.63;35.33;;;;;;;6.70;100.00;100836.47;5105595;28;20028;-74
2021/05/13 02:01:12;;;;;;;53.50;33.90;;;;;;;6.59;100.00;100833.59;5107301;28;20024;-70
2021/05/13 02:03:38;;;;;;;49.47;34.08;;;;;;;6.50;100.00;100836.03;5105303;28;20152;-63
2021/05/13 02:06:04;;;;;;;49.97;34.25;;;;;;;6.46;100.00;100828.94;5107385;28;20489;-63
2021/05/13 02:08:30;;;;;;;50.22;35.45;;;;;;;6.41;100.00;100828.84;5104463;28;20024;-63
2021/05/13 02:10:55;;;;;;;50.83;33.60;;;;;;;6.46;100.00;100818.44;5107535;28;20043;-65
2021/05/13 02:13:21;;;;;;;52.08;34.90;;;;;;;6.46;100.00;100818.44;5105025;28;20034;-63
2021/05/13 02:15:46;;;;;;;50.50;34.58;;;;;;;6.49;100.00;100815.88;5105969;28;20089;-67
2021/05/13 02:18:11;;;;;;;50.92;33.75;;;;;;;6.43;100.00;100815.75;5106502;28;20034;-65
2021/05/13 02:20:37;;;;;;;47.05;32.47;;;;;;;6.44;100.00;100815.78;5103531;28;20032;-66
2021/05/13 02:23:02;;;;;;;52.95;34.67;;;;;;;6.41;100.00;100815.72;5107583;28;20076;-66
2021/05/13 02:25:31;;;;;;;50.15;33.55;;;;;;;6.42;100.00;100811.34;5100005;28;20024;-68
2021/05/13 02:27:56;;;;;;;49.95;35.17;;;;;;;6.41;100.00;100812.22;5107422;28;20365;-67
2021/05/13 02:30:22;;;;;;;52.95;35.42;;;;;;;6.35;100.00;100819.94;5104615;28;20233;-70
2021/05/13 02:32:47;;;;;;;53.67;36.92;;;;;;;6.35;100.00;100814.69;5106269;28;20036;-71
2021/05/13 02:35:14;;;;;;;51.20;35.72;;;;;;;6.27;100.00;100807.53;5105674;28;20435;-68
2021/05/13 02:37:40;;;;;;;55.47;37.65;;;;;;;6.25;100.00;100804.00;5104500;28;20031;-71
2021/05/13 02:40:07;;;;;;;53.33;35.90;;;;;;;6.20;100.00;100810.88;5107046;27;20039;-72
2021/05/13 02:42:33;;;;;;;54.60;36.63;;;;;;;6.18;100.00;100796.84;5102323;28;20039;-72
2021/05/13 02:44:58;;;;;;;51.55;34.22;;;;;;;6.20;100.00;100800.38;5107143;28;20067;-70
2021/05/13 02:47:23;;;;;;;54.58;34.92;;;;;;;6.20;100.00;100800.38;5103904;28;20044;-71
2021/05/13 02:49:49;;;;;;;52.15;35.58;;;;;;;6.22;100.00;100803.94;5105743;28;20039;-72
2021/05/13 02:52:14;;;;;;;52.83;34.10;;;;;;;6.21;100.00;100799.53;5105327;28;20497;-72
2021/05/13 02:54:39;;;;;;;54.45;34.75;;;;;;;6.19;100.00;100798.63;5104522;28;20048;-70
2021/05/13 02:57:05;;;;;;;51.58;35.53;;;;;;;6.22;100.00;100798.69;5106425;28;20023;-63
2021/05/13 02:59:44;;;;;;;57.58;37.10;;;;;;;6.20;100.00;100792.50;5103547;28;20020;-63
2021/05/13 03:02:10;;;;;;;52.47;36.13;;;;;;;6.15;100.00;100794.16;5101524;28;20035;-63
2021/05/13 03:04:35;;;;;;;54.28;36.90;;;;;;;6.12;100.00;100791.47;5106222;28;20035;-63
2021/05/13 03:07:00;;;;;;;56.75;38.13;;;;;;;6.15;100.00;100788.91;5103015;28;20374;-63
2021/05/13 03:09:26;;;;;;;53.83;37.25;;;;;;;6.15;100.00;100785.41;5106772;28;20062;-63
2021/05/13 03:11:51;;;;;;;56.65;39.22;;;;;;;6.14;100.00;100776.63;5103839;28;20378;-63
2021/05/13 03:14:17;;;;;;;55.75;38.20;;;;;;;6.08;100.00;100779.13;5105240;28;20060;-63
2021/05/13 03:16:43;;;;;;;57.80;39.75;;;;;;;6.08;100.00;100779.13;5105311;28;20020;-63
2021/05/13 03:19:11;;;;;;;60.90;39.83;;;;;;;6.08;100.00;100774.75;5103567;28;20119;-63
2021/05/13 03:21:40;;;;;;;66.97;42.25;;;;;;;6.10;100.00;100769.53;5106092;28;20466;-63
2021/05/13 03:24:15;;;;;;;58.58;39.95;;;;;;;6.04;100.00;100754.59;5103197;28;20475;-63
2021/05/13 03:26:57;;;;;;;55.90;38.42;;;;;;;6.03;100.00;100757.16;5105533;28;20047;-63
2021/05/13 03:29:23;;;;;;;70.70;47.15;;;;;;;5.97;100.00;100755.31;5105656;28;20396;-63
2021/05/13 03:31:48;;;;;;;59.88;41.00;;;;;;;6.01;100.00;100756.22;5104095;28;20106;-63
2021/05/13 03:34:14;;;;;;;56.58;38.90;;;;;;;5.98;100.00;100758.81;5104046;28;20020;-63
2021/05/13 03:36:40;;;;;;;59.17;39.55;;;;;;;6.02;100.00;100755.41;5105399;28;20059;-63
2021/05/13 03:39:08;;;;;;;62.00;41.00;;;;;;;6.02;100.00;100758.03;5102757;28;20054;-62
2021/05/13 03:41:34;;;;;;;65.45;41.38;;;;;;;5.90;100.00;100754.22;5105974;28;20474;-63
2021/05/13 03:43:59;;;;;;;78.57;40.22;;;;;;;5.86;100.00;100756.75;5102422;28;20028;-72
2021/05/13 03:46:25;;;;;;;55.45;39.15;;;;;;;5.80;100.00;100756.63;5105260;28;20047;-72
2021/05/13 03:48:50;;;;;;;55.88;39.25;;;;;;;5.88;100.00;100749.78;5103367;28;20062;-72
2021/05/13 03:51:16;;;;;;;54.75;38.28;;;;;;;5.82;100.00;100750.53;5103869;28;20400;-72
2021/05/13 03:53:42;;;;;;;52.67;37.30;;;;;;;5.79;100.00;100747.84;5104724;28;20019;-73
2021/05/13 03:56:07;;;;;;;53.05;37.72;;;;;;;5.85;100.00;100754.97;5102642;28;20028;-72
2021/05/13 03:58:37;;;;;;;53.45;38.58;;;;;;;5.83;100.00;100749.69;5105681;28;20471;-72
2021/05/13 04:01:51;;;;;;;49.58;35.72;;;;;;;5.83;100.00;100747.06;5098632;28;20035;-72
2021/05/13 04:03:52;;;;;;;51.47;36.20;;;;;;;5.81;100.00;100750.50;5093529;28;20054;-72
2021/05/13 04:06:18;;;;;;;49.65;35.65;;;;;;;5.84;100.00;100750.56;5104184;28;20028;-72
2021/05/13 04:08:43;;;;;;;52.00;36.58;;;;;;;5.90;100.00;100746.38;5104269;27;20024;-71
2021/05/13 04:11:08;;;;;;;65.72;40.30;;;;;;;5.96;100.00;100747.38;5102645;28;20076;-72
2021/05/13 04:13:35;;;;;;;62.50;41.90;;;;;;;5.89;100.00;100744.59;5105907;28;20022;-70
2021/05/13 04:16:06;;;;;;;60.13;40.70;;;;;;;6.00;100.00;100743.97;5100568;28;20024;-71
2021/05/13 04:18:31;;;;;;;64.25;41.55;;;;;;;6.01;100.00;100735.25;5097931;28;20106;-71
2021/05/13 04:20:56;;;;;;;66.40;42.83;;;;;;;6.11;100.00;100739.84;5104928;28;20115;-71
2021/05/13 04:23:22;;;;;;;58.30;40.45;;;;;;;6.11;100.00;100745.94;5102809;28;20027;-72
2021/05/13 04:25:48;;;;;;;59.22;40.45;;;;;;;6.18;100.00;100740.84;5103704;28;20375;-63
2021/05/13 04:28:13;;;;;;;58.35;40.42;;;;;;;6.22;100.00;100740.94;5103708;28;20023;-63
2021/05/13 04:30:38;;;;;;;66.00;43.15;;;;;;;6.30;100.00;100737.59;5102248;28;20085;-63
2021/05/13 04:33:04;;;;;;;64.93;44.10;;;;;;;6.36;100.00;100735.06;5104997;28;20426;-63
2021/05/13 04:35:29;;;;;;;61.47;43.03;;;;;;;6.47;100.00;100735.31;5097578;28;20030;-63
2021/05/13 04:37:54;;;;;;;63.15;42.42;;;;;;;6.50;100.00;100741.50;5104377;28;20420;-62
2021/05/13 04:40:20;;;;;;;59.90;41.40;;;;;;;6.60;100.00;100739.94;5102881;28;20355;-63
2021/05/13 04:42:45;;;;;;;61.72;42.65;;;;;;;6.72;100.00;100742.78;5101411;28;20036;-63
2021/05/13 04:45:11;;;;;;;61.17;42.50;;;;;;;6.81;100.00;100744.69;5103436;28;20411;-63
2021/05/13 04:50:10;;;;;;;69.70;47.67;;;;;;;7.11;100.00;100740.84;5104333;27;20092;-63
2021/05/13 04:52:40;;;;;;;64.45;44.53;;;;;;;7.30;100.00;100732.38;5100017;28;20065;-63
2021/05/13 04:55:06;;;;;;;69.95;48.47;;;;;;;7.41;100.00;100739.56;5104984;28;20020;-63
2021/05/13 04:57:34;;;;;;;76.28;50.75;;;;;;;7.61;100.00;100735.47;5101081;28;20531;-63
2021/05/13 05:00:02;;;;;;;83.75;52.72;;;;;;;7.70;100.00;100739.97;5096994;28;20028;-63
2021/05/13 05:02:31;;;;;;;95.25;57.28;;;;;;;7.81;100.00;100738.41;5104319;28;20027;-63
2021/05/13 05:04:56;;;;;;;108.13;62.72;;;;;;;7.88;100.00;100738.47;5101918;28;20030;-63
2021/05/13 05:07:21;;;;;;;111.05;65.97;;;;;;;7.91;100.00;100735.91;5103634;28;20434;-63
2021/05/13 05:09:46;;;;;;;112.95;67.43;;;;;;;7.94;100.00;100741.22;5102885;28;20028;-72
2021/05/13 05:12:13;;;;;;;115.70;68.32;;;;;;;7.97;100.00;100742.13;5102007;28;20102;-74
2021/05/13 05:14:39;;;;;;;122.13;72.13;;;;;;;8.02;100.00;100742.19;5104020;28;20110;-71
2021/05/13 05:17:04;;;;;;;122.10;70.13;;;;;;;8.04;100.00;100748.38;5101354;28;20024;-69
2021/05/13 05:19:30;;;;;;;131.52;72.72;;;;;;;8.08;100.00;100744.91;5104725;28;20462;-74
2021/05/13 05:21:56;;;;;;;126.30;73.80;;;;;;;8.13;100.00;100748.47;5094164;28;20028;-62
2021/05/13 05:24:21;;;;;;;128.65;72.43;;;;;;;8.19;100.00;100743.28;5092519;28;20363;-62
2021/05/13 05:26:46;;;;;;;121.63;68.97;;;;;;;8.19;100.00;100745.03;5087204;28;20069;-64
2021/05/13 05:29:12;;;;;;;128.43;72.90;;;;;;;8.25;100.00;100747.75;5089638;28;20020;-62
2021/05/13 05:31:37;;;;;;;121.72;70.30;;;;;;;8.31;100.00;100753.06;5085388;28;20138;-62
2021/05/13 05:34:03;;;;;;;137.57;74.50;;;;;;;8.48;100.00;100744.53;5088052;28;20458;-63
2021/05/13 05:36:28;;;;;;;123.75;69.70;;;;;;;8.54;100.00;100742.84;5086550;28;20032;-62
2021/05/13 05:38:55;;;;;;;128.43;72.57;;;;;;;8.65;100.00;100745.63;5091085;28;20020;-61
2021/05/13 05:41:22;;;;;;;119.60;68.05;;;;;;;8.67;100.00;100745.63;5085543;28;20066;-62
2021/05/13 05:43:47;;;;;;;137.10;76.10;;;;;;;8.81;100.00;100730.84;5090001;28;20536;-62
2021/05/13 05:46:13;;;;;;;144.48;77.40;;;;;;;8.96;100.00;100732.72;5083636;28;20104;-61
2021/05/13 05:48:38;;;;;;;124.53;69.03;;;;;;;9.01;100.00;100727.50;5089387;28;20059;-62
2021/05/13 05:51:04;;;;;;;137.80;76.07;;;;;;;9.16;100.00;100724.09;5088500;28;20037;-63
2021/05/13 05:53:29;;;;;;;137.18;74.32;;;;;;;9.28;100.00;100720.69;5091480;28;20118;-63
2021/05/13 05:55:54;;;;;;;140.88;75.85;;;;;;;9.40;100.00;100716.38;5094297;28;20036;-62
2021/05/13 05:58:20;;;;;;;140.88;77.03;;;;;;;9.55;100.00;100717.34;5095621;28;20028;-61
2021/05/13 06:00:45;;;;;;;137.73;74.65;;;;;;;9.65;100.00;100713.91;5095415;28;20020;-61
2021/05/13 06:03:10;;;;;;;140.60;75.72;;;;;;;9.76;100.00;100716.63;5093964;28;20069;-61
2021/05/13 06:05:36;;;;;;;129.27;71.03;;;;;;;9.87;100.00;100716.66;5095060;28;20024;-62
2021/05/13 06:08:01;;;;;;;132.32;74.85;;;;;;;10.03;100.00;100717.63;5094894;28;20028;-61
2021/05/13 06:10:26;;;;;;;124.53;68.97;;;;;;;10.10;100.00;100712.38;5094685;28;20039;-62
2021/05/13 06:12:53;;;;;;;124.50;70.97;;;;;;;10.26;100.00;100715.94;5095117;28;20391;-62
2021/05/13 06:15:20;;;;;;;124.32;71.47;;;;;;;10.39;100.00;100706.34;5094666;28;20024;-62
2021/05/13 06:17:46;;;;;;;128.43;74.57;;;;;;;10.51;100.00;100701.97;5095501;28;20023;-62
2021/05/13 06:20:24;;;;;;;130.32;72.25;;;;;;;10.63;100.00;100696.72;5094565;28;20374;-62
2021/05/13 06:22:50;;;;;;;119.75;67.82;;;;;;;10.75;100.00;100694.09;5092299;28;20120;-62
2021/05/13 06:25:16;;;;;;;113.65;64.97;;;;;;;10.78;100.00;100699.38;5095053;28;20116;-63
2021/05/13 06:27:41;;;;;;;120.13;67.43;;;;;;;10.82;100.00;100687.94;5094559;28;20027;-61
2021/05/13 06:30:07;;;;;;;120.82;70.53;;;;;;;10.94;100.00;100683.53;5094070;28;20028;-62
2021/05/13 06:32:33;;;;;;;113.18;67.22;;;;;;;10.99;99.88;100689.69;5094047;28;20024;-62
2021/05/13 06:34:58;;;;;;;121.63;68.47;;;;;;;11.06;100.00;100686.16;5093744;28;20024;-62
2021/05/13 06:37:23;;;;;;;121.07;69.68;;;;;;;11.07;100.00;100681.78;5095254;28;20031;-62
2021/05/13 06:39:49;;;;;;;110.28;64.07;;;;;;;11.04;96.94;100687.03;5094427;28;20441;-61
2021/05/13 06:42:15;;;;;;;112.97;64.97;;;;;;;11.03;95.34;100687.94;5094800;28;20085;-63
2021/05/13 06:44:41;;;;;;;113.63;68.75;;;;;;;11.09;97.49;100690.59;5094683;28;20493;-62
2021/05/13 06:47:06;;;;;;;113.18;63.72;;;;;;;11.08;95.00;100689.72;5097474;28;20032;-62
2021/05/13 06:49:32;;;;;;;111.00;63.35;;;;;;;11.10;94.43;100690.56;5094640;28;20075;-62
2021/05/13 06:51:57;;;;;;;109.28;63.72;;;;;;;11.13;93.37;100695.00;5093088;28;20048;-61
2021/05/13 06:54:22;;;;;;;113.18;65.32;;;;;;;11.19;94.03;100686.19;5093915;28;20027;-61
2021/05/13 06:56:48;;;;;;;107.85;62.53;;;;;;;11.31;92.03;100694.09;5094637;28;20035;-63
2021/05/13 06:59:14;;;;;;;110.65;62.22;;;;;;;11.42;90.91;100692.31;5093227;28;20071;-63
2021/05/13 07:01:39;;;;;;;113.07;65.68;;;;;;;11.48;89.81;100694.94;5093026;28;20052;-63
2021/05/13 07:04:05;;;;;;;108.00;61.83;;;;;;;11.51;85.81;100686.13;5094223;28;20028;-63
2021/05/13 07:06:32;;;;;;;106.30;62.72;;;;;;;11.57;85.94;100691.41;5092860;28;20097;-62
2021/05/13 07:08:58;;;;;;;109.38;62.80;;;;;;;11.71;86.95;100686.09;5094481;28;20383;-63
2021/05/13 07:11:23;;;;;;;113.22;66.40;;;;;;;11.80;85.26;100691.34;5092208;28;20028;-63
2021/05/13 07:13:48;;;;;;;115.15;65.05;;;;;;;11.93;85.86;100686.03;5094181;28;20032;-63
2021/05/13 07:16:14;;;;;;;119.65;65.25;;;;;;;11.98;84.48;100690.41;5094338;28;20108;-63
2021/05/13 07:18:39;;;;;;;111.07;61.55;;;;;;;12.00;80.68;100683.38;5093657;28;20119;-63
2021/05/13 07:21:04;;;;;;;101.28;57.90;;;;;;;12.01;78.24;100690.44;5092566;28;20036;-63
2021/05/13 07:23:30;;;;;;;111.32;62.70;;;;;;;12.10;79.96;100689.50;5097362;28;20465;-63
2021/05/13 07:25:55;;;;;;;104.60;56.95;;;;;;;12.25;76.76;100679.72;5102296;28;20359;-63
2021/05/13 07:28:21;;;;;;;102.25;56.13;;;;;;;12.40;75.66;100681.41;5105553;28;20024;-63
2021/05/13 07:30:46;;;;;;;101.28;56.47;;;;;;;12.50;77.64;100676.03;5103350;28;20157;-63
2021/05/13 07:33:11;;;;;;;93.28;53.47;;;;;;;12.62;73.69;100682.16;5104289;28;20080;-63
2021/05/13 07:35:37;;;;;;;91.90;52.22;;;;;;;12.71;73.48;100687.38;5104428;28;20104;-64
2021/05/13 07:38:03;;;;;;;91.18;50.80;;;;;;;12.82;72.93;100688.19;5103573;28;20027;-63
2021/05/13 07:40:29;;;;;;;92.38;50.95;;;;;;;12.87;69.60;100683.75;5105704;28;20602;-63
2021/05/13 07:42:55;;;;;;;87.60;48.97;;;;;;;12.94;69.22;100675.72;5102311;28;20028;-63
2021/05/13 07:45:20;;;;;;;82.68;46.60;;;;;;;12.99;69.07;100677.47;5105734;28;20020;-63
2021/05/13 07:47:46;;;;;;;88.82;50.08;;;;;;;13.13;71.94;100676.47;5102902;28;20051;-66
2021/05/13 07:50:14;;;;;;;93.47;50.90;;;;;;;13.27;72.59;100671.03;5104387;28;20032;-66
2021/05/13 07:52:40;;;;;;;95.30;50.00;;;;;;;13.40;71.56;100670.06;5104093;28;20168;-67
2021/05/13 07:55:06;;;;;;;83.28;44.03;;;;;;;13.48;69.67;100670.81;5103267;28;20059;-64
2021/05/13 07:57:31;;;;;;;85.07;46.40;;;;;;;13.59;67.81;100673.38;5105529;28;20027;-66
2021/05/13 07:59:57;;;;;;;83.13;44.00;;;;;;;13.68;67.36;100675.06;5102394;28;20024;-69
2021/05/13 08:02:22;;;;;;;83.03;43.35;;;;;;;13.83;68.06;100677.53;5105404;28;20034;-66
2021/05/13 08:04:48;;;;;;;79.78;43.40;;;;;;;13.98;66.81;100676.50;5102760;28;20494;-66
2021/05/13 08:07:22;;;;;;;68.35;37.67;;;;;;;14.08;64.83;100671.91;5104039;28;20030;-65
2021/05/13 08:09:48;;;;;;;71.32;40.05;;;;;;;14.22;63.72;100683.25;5102871;28;20035;-65
2021/05/13 08:12:14;;;;;;;69.80;39.75;;;;;;;14.34;64.19;100668.91;5104517;28;20425;-64
2021/05/13 08:14:39;;;;;;;76.53;40.35;;;;;;;14.48;63.47;100671.38;5103803;28;20019;-69
2021/05/13 08:17:05;;;;;;;71.28;37.65;;;;;;;14.66;62.47;100672.03;5102831;28;20123;-63
2021/05/13 08:19:30;;;;;;;66.03;36.65;;;;;;;14.79;60.55;100661.19;5104340;28;20107;-65
2021/05/13 08:21:56;;;;;;;65.55;37.60;;;;;;;14.93;60.75;100663.63;5101435;28;20470;-65
2021/05/13 08:24:21;;;;;;;70.85;37.63;;;;;;;15.08;59.52;100666.94;5104892;28;20024;-65
2021/05/13 08:26:46;;;;;;;57.63;30.90;;;;;;;15.32;56.37;100662.97;5102790;28;20023;-66
2021/05/13 08:29:12;;;;;;;59.50;31.85;;;;;;;15.60;56.97;100662.44;5103355;28;20463;-66
2021/05/13 08:31:37;;;;;;;55.90;31.45;;;;;;;15.96;56.75;100668.84;5103543;28;20534;-65
2021/05/13 08:34:02;;;;;;;46.20;23.60;;;;;;;16.27;52.66;100657.53;5100814;28;20031;-64
2021/05/13 08:36:28;;;;;;;47.30;23.95;;;;;;;16.45;51.87;100655.34;5104689;28;20024;-66
2021/05/13 08:38:53;;;;;;;56.00;28.05;;;;;;;16.66;53.23;100662.88;5101314;28;20416;-65
2021/05/13 08:41:19;;;;;;;53.10;26.85;;;;;;;16.85;50.55;100649.94;5104570;28;20043;-65
2021/05/13 08:43:49;;;;;;;48.90;26.45;;;;;;;16.90;50.57;100649.88;5102680;28;20055;-66
2021/05/13 08:46:16;;;;;;;44.15;21.42;;;;;;;16.93;49.47;100647.13;5101942;28;20036;-68
2021/05/13 08:48:43;;;;;;;43.15;19.70;;;;;;;16.92;47.60;100641.81;5102706;28;20043;-71
2021/05/13 08:51:08;;;;;;;45.17;21.50;;;;;;;16.95;48.48;100650.63;5102770;28;20036;-65
2021/05/13 08:53:46;;;;;;;42.15;20.90;;;;;;;17.06;49.17;100648.56;5102561;28;20371;-66
2021/05/13 08:56:11;;;;;;;47.92;21.35;;;;;;;17.07;48.25;100644.09;5099537;28;20016;-71
2021/05/13 08:58:37;;;;;;;41.08;20.13;;;;;;;17.04;46.32;100644.19;5104148;28;20034;-65
2021/05/13 09:01:03;;;;;;;43.97;19.70;;;;;;;17.20;48.16;100640.19;5100659;28;20060;-70
2021/05/13 09:03:30;;;;;;;44.03;19.55;;;;;;;17.24;47.23;100638.31;5104252;28;20019;-70
2021/05/13 09:05:56;;;;;;;35.47;15.13;;;;;;;17.29;45.00;100643.56;5101520;28;20094;-71
2021/05/13 09:08:22;;;;;;;48.17;16.63;;;;;;;17.43;45.91;100636.91;5103136;28;20120;-70
2021/05/13 09:10:49;;;;;;;33.33;14.73;;;;;;;17.67;45.02;100639.81;5103298;28;20030;-68
2021/05/13 09:13:28;;;;;;;34.40;14.73;;;;;;;17.69;45.81;100638.00;5102545;28;20081;-70
2021/05/13 09:15:53;;;;;;;35.65;14.70;;;;;;;17.81;44.48;100631.41;5102291;28;20386;-70
2021/05/13 09:18:30;;;;;;;35.20;15.68;;;;;;;18.09;45.90;100634.16;5102700;28;20020;-71
2021/05/13 09:21:03;;;;;;;32.97;12.45;;;;;;;18.41;43.24;100631.44;5101643;28;20489;-71
2021/05/13 09:23:29;;;;;;;25.88;9.88;;;;;;;18.69;40.31;100620.69;5104229;28;20165;-72
2021/05/13 09:26:03;;;;;;;30.33;11.02;;;;;;;18.95;43.26;100622.53;5101810;28;20051;-71
2021/05/13 09:28:29;;;;;;;33.10;12.25;;;;;;;19.10;41.14;100623.78;5103904;28;20432;-71
2021/05/13 09:30:54;;;;;;;33.35;12.82;;;;;;;19.43;40.86;100622.69;5104989;28;20085;-70
2021/05/13 09:33:27;;;;;;;30.55;11.63;;;;;;;19.68;41.43;100619.97;5106647;28;20122;-70
2021/05/13 09:35:52;;;;;;;29.70;10.60;;;;;;;19.93;38.99;100613.72;5106085;28;20482;-71
2021/05/13 09:38:17;;;;;;;29.92;10.82;;;;;;;20.17;36.51;100612.78;5106812;28;20067;-73
2021/05/13 09:40:52;;;;;;;24.83;7.80;;;;;;;20.36;34.69;100620.09;5106034;28;20103;-69
2021/05/13 09:43:31;;;;;;;26.58;8.25;;;;;;;20.87;34.75;100610.00;5106181;28;20383;-71
2021/05/13 09:46:02;;;;;;;27.92;8.35;;;;;;;22.07;33.16;100611.84;5105744;28;20087;-71
2021/05/13 09:48:40;;;;;;;24.38;7.40;;;;;;;23.37;31.66;100609.00;5108075;28;20039;-72
2021/05/13 09:51:35;;;;;;;24.98;7.97;;;;;;;24.40;31.18;100602.53;5101526;28;20032;-71
2021/05/13 09:54:11;;;;;;;26.42;8.45;;;;;;;25.35;29.08;100604.19;5107349;28;20031;-63
2021/05/13 09:56:49;;;;;;;23.35;7.05;;;;;;;26.14;25.03;100596.56;5101249;28;20035;-63
2021/05/13 09:59:22;;;;;;;24.63;7.63;;;;;;;26.09;26.47;100604.97;5106704;28;20023;-64
2021/05/13 10:01:49;;;;;;;26.65;7.63;;;;;;;25.74;25.75;100597.22;5105655;28;20060;-64
2021/05/13 10:04:14;;;;;;;25.67;8.27;;;;;;;27.17;25.09;100599.66;5106593;28;20030;-64
2021/05/13 10:06:40;;;;;;;26.35;8.57;;;;;;;27.98;22.83;100603.06;5104991;28;20370;-64
2021/05/13 10:09:06;;;;;;;24.73;8.57;;;;;;;27.73;22.01;100593.94;5107703;28;20035;-64
2021/05/13 10:11:32;;;;;;;26.83;9.32;;;;;;;28.80;21.78;100583.44;5104374;28;20020;-64
2021/05/13 10:13:58;;;;;;;22.27;6.95;;;;;;;29.24;18.90;100594.59;5105589;28;20035;-64
2021/05/13 10:16:26;;;;;;;22.95;6.45;;;;;;;29.24;20.18;100591.88;5105431;28;20024;-64
2021/05/13 10:18:56;;;;;;;24.67;6.90;;;;;;;29.52;20.16;100588.72;5105978;28;20538;-64
2021/05/13 10:21:25;;;;;;;22.23;6.40;;;;;;;30.28;19.17;100587.22;5105515;28;20032;-64
2021/05/13 10:23:53;;;;;;;23.73;7.70;;;;;;;31.11;17.84;100585.72;5105587;28;20016;-64
2021/05/13 10:26:32;;;;;;;26.77;10.05;;;;;;;32.20;19.34;100577.94;5105731;28;20035;-64
2021/05/13 10:28:58;;;;;;;27.25;9.18;;;;;;;31.44;17.90;100581.91;5106591;28;20059;-64
2021/05/13 10:31:37;;;;;;;28.23;10.40;;;;;;;27.94;21.85;100571.66;5105121;28;20062;-64
2021/05/13 10:34:03;;;;;;;26.65;9.20;;;;;;;27.59;21.62;100575.06;5107309;28;20032;-64
2021/05/13 10:36:29;;;;;;;24.90;8.80;;;;;;;28.73;22.02;100565.84;5104026;28;20081;-64
2021/05/13 10:39:04;;;;;;;26.67;8.77;;;;;;;28.74;21.28;100568.44;5106078;28;20107;-64
2021/05/13 10:41:31;;;;;;;25.13;8.82;;;;;;;29.27;21.15;100568.03;5102887;28;20498;-64
2021/05/13 10:44:18;;;;;;;25.45;8.60;;;;;;;30.39;19.57;100562.63;5106632;28;20074;-72
2021/05/13 10:46:56;;;;;;;25.38;8.25;;;;;;;31.38;19.77;100560.59;5101848;28;20044;-72
2021/05/13 10:49:26;;;;;;;27.15;8.50;;;;;;;30.91;18.05;100560.97;5104838;28;20059;-72
2021/05/13 10:51:53;;;;;;;25.92;9.43;;;;;;;31.23;19.07;100565.53;5105322;28;20467;-70
2021/05/13 10:54:28;;;;;;;27.60;10.27;;;;;;;30.90;20.69;100551.06;5105434;28;20027;-70
2021/05/13 10:57:09;;;;;;;26.98;10.10;;;;;;;31.56;20.29;100557.25;5105498;28;20059;-72
2021/05/13 10:59:34;;;;;;;28.77;10.23;;;;;;;31.78;17.88;100558.94;5099340;28;20024;-72
2021/05/13 11:02:01;;;;;;;26.92;9.70;;;;;;;31.84;17.37;100563.00;5106432;28;20074;-72
2021/05/13 11:04:28;;;;;;;25.42;9.35;;;;;;;32.10;18.23;100545.06;5104312;28;20035;-73
2021/05/13 11:06:59;;;;;;;26.52;9.90;;;;;;;31.70;19.10;100551.41;5105188;28;20382;-71
2021/05/13 11:09:39;;;;;;;26.30;10.63;;;;;;;30.45;19.87;100540.38;5104298;28;20027;-73
2021/05/13 11:12:17;;;;;;;26.95;9.52;;;;;;;29.85;20.57;100543.47;5099175;28;20028;-73
2021/05/13 11:15:19;;;;;;;26.52;9.30;;;;;;;30.21;21.12;100538.66;5100836;28;20077;-72
2021/05/13 11:17:49;;;;;;;26.15;9.40;;;;;;;31.92;18.46;100542.16;5099691;28;20035;-72